Portada
METAR-TAF:

METAR-TAF

Aeroports :

Puerto Ayacucho, Veneçuela

latitud: 05-36N, longitud: 067-30W, altitud: 73 m

Observació

L'informe es va fer fa 6 hores i 2 minuts, a les 18:02 UTC
Vent 5 kt del Sud-Oest
Temperatura 31°C
Humitat 63%
Pressió 1010 hPa

METAR: SVPA 011802Z AUTO 23005KT NCD 31/23 Q1010

Hora: 20:04 (00:04 UTC)


TAF: manca

Observacions i pronòstics meteorològics de més de 4000 aeroports (METAR i TAF).

Les estacions disponibles són els punts grocs i vermells al mapa.

Posi el ratolí al punt desitjat per veure el nom de l'estació.

Feu clic per veure les observacions i els pronòstics meteorològics.

Per canviar el mapa: feu clic els botons verds amb una creu de color negre per apropar; al botó verd amb un guió per allunyar la imatge; o en les fletxes verdes per a mapes adjacents.


METAR-TAF: